sensor_id;sensor_type;location;lat;lon;timestamp;pressure;altitude;pressure_sealevel;temperature;humidity
13765;BME280;6953;48.810;9.204;2022-07-23T00:01:28;98686.69;;;27.18;53.34
13765;BME280;6953;48.810;9.204;2022-07-23T00:03:54;98604.69;;;26.83;53.00
13765;BME280;6953;48.810;9.204;2022-07-23T00:06:20;98632.75;;;27.03;53.21
13765;BME280;6953;48.810;9.204;2022-07-23T00:08:46;98610.03;;;26.69;53.36
13765;BME280;6953;48.810;9.204;2022-07-23T00:11:11;98674.19;;;27.02;54.09
13765;BME280;6953;48.810;9.204;2022-07-23T00:13:37;98617.09;;;26.70;53.87
13765;BME280;6953;48.810;9.204;2022-07-23T00:16:03;98577.59;;;26.48;54.35
13765;BME280;6953;48.810;9.204;2022-07-23T00:18:28;98635.69;;;26.79;54.62
13765;BME280;6953;48.810;9.204;2022-07-23T00:20:54;98651.19;;;26.77;55.17
13765;BME280;6953;48.810;9.204;2022-07-23T00:23:19;98622.81;;;26.52;55.21
13765;BME280;6953;48.810;9.204;2022-07-23T00:25:44;98658.31;;;26.70;55.48
13765;BME280;6953;48.810;9.204;2022-07-23T00:28:13;98662.22;;;26.68;55.62
13765;BME280;6953;48.810;9.204;2022-07-23T00:30:38;98582.34;;;26.24;55.63
13765;BME280;6953;48.810;9.204;2022-07-23T00:33:07;98649.97;;;26.65;55.72
13765;BME280;6953;48.810;9.204;2022-07-23T00:35:36;98572.97;;;26.20;55.39
13765;BME280;6953;48.810;9.204;2022-07-23T00:38:02;98607.25;;;26.40;55.95
13765;BME280;6953;48.810;9.204;2022-07-23T00:40:29;98639.63;;;26.54;55.95
13765;BME280;6953;48.810;9.204;2022-07-23T00:42:55;98634.59;;;26.51;56.53
13765;BME280;6953;48.810;9.204;2022-07-23T00:45:20;98647.88;;;26.08;58.75
13765;BME280;6953;48.810;9.204;2022-07-23T00:47:46;98642.91;;;25.13;63.45
13765;BME280;6953;48.810;9.204;2022-07-23T00:50:11;98608.50;;;24.54;66.29
13765;BME280;6953;48.810;9.204;2022-07-23T00:52:38;98610.31;;;24.45;67.69
13765;BME280;6953;48.810;9.204;2022-07-23T00:55:04;98615.34;;;24.64;66.74
13765;BME280;6953;48.810;9.204;2022-07-23T00:57:30;98593.16;;;24.86;65.54
13765;BME280;6953;48.810;9.204;2022-07-23T00:59:56;98613.16;;;25.30;64.13
13765;BME280;6953;48.810;9.204;2022-07-23T01:02:23;98627.56;;;25.45;63.54
13765;BME280;6953;48.810;9.204;2022-07-23T01:04:49;98538.88;;;24.99;63.09
13765;BME280;6953;48.810;9.204;2022-07-23T01:07:15;98563.50;;;25.10;62.96
13765;BME280;6953;48.810;9.204;2022-07-23T01:09:40;98623.44;;;25.57;63.19
13765;BME280;6953;48.810;9.204;2022-07-23T01:12:07;98627.13;;;25.64;63.42
13765;BME280;6953;48.810;9.204;2022-07-23T01:14:33;98618.28;;;25.47;63.38
13765;BME280;6953;48.810;9.204;2022-07-23T01:16:58;98629.16;;;25.54;63.33
13765;BME280;6953;48.810;9.204;2022-07-23T01:19:23;98630.81;;;25.63;63.15
13765;BME280;6953;48.810;9.204;2022-07-23T01:21:51;98539.94;;;25.28;62.85
13765;BME280;6953;48.810;9.204;2022-07-23T01:24:18;98591.63;;;25.68;62.98
13765;BME280;6953;48.810;9.204;2022-07-23T01:26:45;98534.41;;;25.30;62.99
13765;BME280;6953;48.810;9.204;2022-07-23T01:29:12;98613.47;;;25.65;63.70
13765;BME280;6953;48.810;9.204;2022-07-23T01:31:37;98512.88;;;25.07;64.23
13765;BME280;6953;48.810;9.204;2022-07-23T01:34:03;98600.50;;;25.38;64.56
13765;BME280;6953;48.810;9.204;2022-07-23T01:36:29;98607.00;;;25.52;65.23
13765;BME280;6953;48.810;9.204;2022-07-23T01:38:55;98538.88;;;25.15;64.89
13765;BME280;6953;48.810;9.204;2022-07-23T01:41:20;98459.28;;;24.75;64.91
13765;BME280;6953;48.810;9.204;2022-07-23T01:43:45;98517.56;;;25.05;64.77
13765;BME280;6953;48.810;9.204;2022-07-23T01:46:11;98569.91;;;25.47;64.92
13765;BME280;6953;48.810;9.204;2022-07-23T01:48:37;98518.72;;;25.03;64.59
13765;BME280;6953;48.810;9.204;2022-07-23T01:51:02;98598.00;;;25.45;64.72
13765;BME280;6953;48.810;9.204;2022-07-23T01:53:28;98525.47;;;24.99;64.92
13765;BME280;6953;48.810;9.204;2022-07-23T01:55:56;98599.03;;;25.36;65.28
13765;BME280;6953;48.810;9.204;2022-07-23T01:58:21;98603.78;;;25.26;65.65
13765;BME280;6953;48.810;9.204;2022-07-23T02:00:47;98546.66;;;24.86;66.32
13765;BME280;6953;48.810;9.204;2022-07-23T02:03:12;98549.25;;;24.63;67.23
13765;BME280;6953;48.810;9.204;2022-07-23T02:05:37;98624.84;;;24.83;67.44
13765;BME280;6953;48.810;9.204;2022-07-23T02:08:03;98649.34;;;24.80;67.67
13765;BME280;6953;48.810;9.204;2022-07-23T02:10:28;98586.00;;;24.47;67.48
13765;BME280;6953;48.810;9.204;2022-07-23T02:12:54;98632.59;;;24.78;67.25
13765;BME280;6953;48.810;9.204;2022-07-23T02:15:19;98466.03;;;23.85;67.68
13765;BME280;6953;48.810;9.204;2022-07-23T02:17:45;98659.59;;;24.76;67.68
13765;BME280;6953;48.810;9.204;2022-07-23T02:20:11;98657.44;;;24.72;68.10
13765;BME280;6953;48.810;9.204;2022-07-23T02:22:37;98645.53;;;24.66;68.58
13765;BME280;6953;48.810;9.204;2022-07-23T02:25:04;98628.44;;;24.51;69.21
13765;BME280;6953;48.810;9.204;2022-07-23T02:27:30;98643.84;;;24.49;69.31
13765;BME280;6953;48.810;9.204;2022-07-23T02:29:55;98652.91;;;24.48;69.63
13765;BME280;6953;48.810;9.204;2022-07-23T02:32:21;98626.91;;;24.25;69.39
13765;BME280;6953;48.810;9.204;2022-07-23T02:34:47;98615.66;;;24.06;70.08
13765;BME280;6953;48.810;9.204;2022-07-23T02:37:13;98675.84;;;24.43;69.98
13765;BME280;6953;48.810;9.204;2022-07-23T02:39:39;98628.22;;;24.05;70.10
13765;BME280;6953;48.810;9.204;2022-07-23T02:42:04;98681.25;;;24.35;70.46
13765;BME280;6953;48.810;9.204;2022-07-23T02:44:29;98695.81;;;24.32;70.59
13765;BME280;6953;48.810;9.204;2022-07-23T02:46:55;98700.66;;;24.29;70.84
13765;BME280;6953;48.810;9.204;2022-07-23T02:49:21;98623.44;;;23.75;71.04
13765;BME280;6953;48.810;9.204;2022-07-23T02:51:46;98714.22;;;24.27;70.88
13765;BME280;6953;48.810;9.204;2022-07-23T02:54:11;98634.41;;;23.82;70.87
13765;BME280;6953;48.810;9.204;2022-07-23T02:56:37;98724.31;;;24.33;70.82
13765;BME280;6953;48.810;9.204;2022-07-23T02:59:02;98581.72;;;23.57;70.23
13765;BME280;6953;48.810;9.204;2022-07-23T03:01:27;98687.75;;;24.17;69.99
13765;BME280;6953;48.810;9.204;2022-07-23T03:03:53;98655.53;;;24.09;69.93
13765;BME280;6953;48.810;9.204;2022-07-23T03:06:18;98723.53;;;24.49;70.11
13765;BME280;6953;48.810;9.204;2022-07-23T03:08:44;98629.72;;;23.92;70.13
13765;BME280;6953;48.810;9.204;2022-07-23T03:11:09;98644.47;;;23.96;70.08
13765;BME280;6953;48.810;9.204;2022-07-23T03:13:39;98670.13;;;24.06;70.34
13765;BME280;6953;48.810;9.204;2022-07-23T03:16:05;98748.47;;;24.41;70.62
13765;BME280;6953;48.810;9.204;2022-07-23T03:18:32;98745.78;;;24.41;70.91
13765;BME280;6953;48.810;9.204;2022-07-23T03:20:57;98459.00;;;22.79;70.80
13765;BME280;6953;48.810;9.204;2022-07-23T03:23:23;98652.53;;;23.96;70.95
13765;BME280;6953;48.810;9.204;2022-07-23T03:25:48;98737.22;;;24.38;71.00
13765;BME280;6953;48.810;9.204;2022-07-23T03:28:14;98712.22;;;24.29;71.44
13765;BME280;6953;48.810;9.204;2022-07-23T03:30:44;98634.88;;;23.77;71.66
13765;BME280;6953;48.810;9.204;2022-07-23T03:33:15;98706.00;;;24.21;71.93
13765;BME280;6953;48.810;9.204;2022-07-23T03:35:42;98644.28;;;23.81;72.20
13765;BME280;6953;48.810;9.204;2022-07-23T03:38:08;98713.38;;;24.11;72.67
13765;BME280;6953;48.810;9.204;2022-07-23T03:40:33;98723.75;;;24.06;72.52
13765;BME280;6953;48.810;9.204;2022-07-23T03:42:58;98692.50;;;23.81;73.23
13765;BME280;6953;48.810;9.204;2022-07-23T03:45:24;98673.00;;;23.63;73.67
13765;BME280;6953;48.810;9.204;2022-07-23T03:47:49;98649.34;;;23.43;74.16
13765;BME280;6953;48.810;9.204;2022-07-23T03:50:14;98720.78;;;23.76;74.39
13765;BME280;6953;48.810;9.204;2022-07-23T03:52:40;98684.84;;;23.53;74.66
13765;BME280;6953;48.810;9.204;2022-07-23T03:55:06;98589.88;;;22.98;74.93
13765;BME280;6953;48.810;9.204;2022-07-23T03:57:31;98606.59;;;23.00;75.35
13765;BME280;6953;48.810;9.204;2022-07-23T03:59:57;98727.91;;;23.59;76.21
13765;BME280;6953;48.810;9.204;2022-07-23T04:02:22;98642.50;;;23.15;75.96
13765;BME280;6953;48.810;9.204;2022-07-23T04:04:47;98706.47;;;23.59;75.44
13765;BME280;6953;48.810;9.204;2022-07-23T04:07:15;98712.25;;;23.72;75.01
13765;BME280;6953;48.810;9.204;2022-07-23T04:09:42;98731.44;;;23.93;74.31
13765;BME280;6953;48.810;9.204;2022-07-23T04:12:08;98724.25;;;24.10;73.53
13765;BME280;6953;48.810;9.204;2022-07-23T04:14:33;98729.16;;;24.22;72.85
13765;BME280;6953;48.810;9.204;2022-07-23T04:16:59;98636.22;;;23.81;72.06
13765;BME280;6953;48.810;9.204;2022-07-23T04:19:25;98729.38;;;24.52;71.68
13765;BME280;6953;48.810;9.204;2022-07-23T04:21:50;98732.09;;;24.60;71.06
13765;BME280;6953;48.810;9.204;2022-07-23T04:24:15;98741.13;;;24.67;70.95
13765;BME280;6953;48.810;9.204;2022-07-23T04:26:41;98690.31;;;24.50;70.09
13765;BME280;6953;48.810;9.204;2022-07-23T04:29:06;98732.91;;;24.85;69.81
13765;BME280;6953;48.810;9.204;2022-07-23T04:31:31;98627.09;;;24.23;69.30
13765;BME280;6953;48.810;9.204;2022-07-23T04:33:57;98755.91;;;24.95;69.14
13765;BME280;6953;48.810;9.204;2022-07-23T04:36:23;98660.47;;;24.53;68.66
13765;BME280;6953;48.810;9.204;2022-07-23T04:38:49;98740.28;;;25.07;68.11
13765;BME280;6953;48.810;9.204;2022-07-23T04:41:14;98684.59;;;24.77;68.19
13765;BME280;6953;48.810;9.204;2022-07-23T04:43:39;98734.56;;;25.10;68.37
13765;BME280;6953;48.810;9.204;2022-07-23T04:46:05;98672.69;;;24.79;68.92
13765;BME280;6953;48.810;9.204;2022-07-23T04:48:31;98689.97;;;24.93;68.56
13765;BME280;6953;48.810;9.204;2022-07-23T04:50:56;98740.97;;;25.25;68.14
13765;BME280;6953;48.810;9.204;2022-07-23T04:53:22;98705.56;;;24.73;69.10
13765;BME280;6953;48.810;9.204;2022-07-23T04:55:47;98731.06;;;25.01;69.12
13765;BME280;6953;48.810;9.204;2022-07-23T04:58:13;98656.63;;;24.63;69.32
13765;BME280;6953;48.810;9.204;2022-07-23T05:00:38;98688.44;;;24.90;68.08
13765;BME280;6953;48.810;9.204;2022-07-23T05:03:03;98737.72;;;25.45;66.94
13765;BME280;6953;48.810;9.204;2022-07-23T05:05:29;98743.53;;;25.64;65.98
13765;BME280;6953;48.810;9.204;2022-07-23T05:07:54;98712.16;;;25.57;65.33
13765;BME280;6953;48.810;9.204;2022-07-23T05:10:19;98678.63;;;25.75;63.77
13765;BME280;6953;48.810;9.204;2022-07-23T05:12:45;98659.69;;;25.99;62.46
13765;BME280;6953;48.810;9.204;2022-07-23T05:15:10;98589.47;;;25.64;62.47
13765;BME280;6953;48.810;9.204;2022-07-23T05:17:36;98743.97;;;26.75;62.17
13765;BME280;6953;48.810;9.204;2022-07-23T05:20:02;98700.78;;;26.83;61.04
13765;BME280;6953;48.810;9.204;2022-07-23T05:22:28;98744.50;;;27.44;59.53
13765;BME280;6953;48.810;9.204;2022-07-23T05:24:53;98690.69;;;27.50;58.94
13765;BME280;6953;48.810;9.204;2022-07-23T05:27:19;98733.41;;;28.11;57.73
13765;BME280;6953;48.810;9.204;2022-07-23T05:29:44;98724.47;;;28.25;56.38
13765;BME280;6953;48.810;9.204;2022-07-23T05:32:09;98751.38;;;28.54;55.34
13765;BME280;6953;48.810;9.204;2022-07-23T05:34:35;98758.06;;;29.21;52.97
13765;BME280;6953;48.810;9.204;2022-07-23T05:37:00;98753.56;;;29.89;50.31
13765;BME280;6953;48.810;9.204;2022-07-23T05:39:25;98782.13;;;30.45;48.96
13765;BME280;6953;48.810;9.204;2022-07-23T05:41:51;98768.88;;;30.09;48.74
13765;BME280;6953;48.810;9.204;2022-07-23T05:44:16;98770.88;;;29.61;51.27
13765;BME280;6953;48.810;9.204;2022-07-23T05:46:41;98763.28;;;29.01;52.44
13765;BME280;6953;48.810;9.204;2022-07-23T05:49:07;98780.19;;;28.68;53.09
13765;BME280;6953;48.810;9.204;2022-07-23T05:51:32;98714.53;;;27.97;52.79
13765;BME280;6953;48.810;9.204;2022-07-23T05:53:58;98786.28;;;28.20;53.33
13765;BME280;6953;48.810;9.204;2022-07-23T05:56:23;98688.53;;;27.60;53.34
13765;BME280;6953;48.810;9.204;2022-07-23T05:58:48;98722.22;;;27.79;53.35
13765;BME280;6953;48.810;9.204;2022-07-23T06:01:14;98790.00;;;28.19;52.99
13765;BME280;6953;48.810;9.204;2022-07-23T06:03:39;98790.75;;;28.13;52.83
13765;BME280;6953;48.810;9.204;2022-07-23T06:06:05;98789.28;;;27.96;53.50
13765;BME280;6953;48.810;9.204;2022-07-23T06:08:30;98797.75;;;27.93;54.23
13765;BME280;6953;48.810;9.204;2022-07-23T06:10:56;98779.72;;;27.79;54.45
13765;BME280;6953;48.810;9.204;2022-07-23T06:13:21;98800.06;;;27.82;55.11
13765;BME280;6953;48.810;9.204;2022-07-23T06:15:47;98699.59;;;27.22;55.44
13765;BME280;6953;48.810;9.204;2022-07-23T06:18:12;98782.13;;;27.74;55.69
13765;BME280;6953;48.810;9.204;2022-07-23T06:20:37;98771.03;;;27.69;56.93
13765;BME280;6953;48.810;9.204;2022-07-23T06:23:04;98623.06;;;26.80;57.20
13765;BME280;6953;48.810;9.204;2022-07-23T06:25:29;98787.84;;;28.29;55.78
13765;BME280;6953;48.810;9.204;2022-07-23T06:27:54;98718.72;;;29.18;52.31
13765;BME280;6953;48.810;9.204;2022-07-23T06:30:20;98788.84;;;30.08;49.73
13765;BME280;6953;48.810;9.204;2022-07-23T06:32:46;98793.09;;;29.83;50.03
13765;BME280;6953;48.810;9.204;2022-07-23T06:35:12;98797.44;;;29.51;49.30
13765;BME280;6953;48.810;9.204;2022-07-23T06:37:37;98765.59;;;29.25;48.47
13765;BME280;6953;48.810;9.204;2022-07-23T06:40:03;98692.28;;;28.65;47.84
13765;BME280;6953;48.810;9.204;2022-07-23T06:42:29;98725.59;;;28.52;49.65
13765;BME280;6953;48.810;9.204;2022-07-23T06:44:54;98779.41;;;28.53;49.37
13765;BME280;6953;48.810;9.204;2022-07-23T06:47:20;98776.75;;;28.39;49.68
13765;BME280;6953;48.810;9.204;2022-07-23T06:49:45;98791.47;;;28.71;49.03
13765;BME280;6953;48.810;9.204;2022-07-23T06:52:10;98790.47;;;29.14;48.16
13765;BME280;6953;48.810;9.204;2022-07-23T06:54:36;98788.44;;;29.44;48.25
13765;BME280;6953;48.810;9.204;2022-07-23T06:57:01;98745.56;;;28.92;48.21
13765;BME280;6953;48.810;9.204;2022-07-23T06:59:27;98771.44;;;28.66;49.54
13765;BME280;6953;48.810;9.204;2022-07-23T07:01:52;98759.38;;;28.12;50.37
13765;BME280;6953;48.810;9.204;2022-07-23T07:04:18;98843.41;;;28.09;52.09
13765;BME280;6953;48.810;9.204;2022-07-23T07:06:43;98841.69;;;27.65;53.50
13765;BME280;6953;48.810;9.204;2022-07-23T07:09:08;98822.34;;;27.25;54.47
13765;BME280;6953;48.810;9.204;2022-07-23T07:11:34;98830.44;;;27.02;56.20
13765;BME280;6953;48.810;9.204;2022-07-23T07:14:00;98855.19;;;27.06;56.75
13765;BME280;6953;48.810;9.204;2022-07-23T07:16:25;98865.97;;;27.06;57.16
13765;BME280;6953;48.810;9.204;2022-07-23T07:18:50;98858.06;;;27.04;57.21
13765;BME280;6953;48.810;9.204;2022-07-23T07:21:16;98874.09;;;26.98;57.93
13765;BME280;6953;48.810;9.204;2022-07-23T07:23:41;98819.88;;;26.70;58.79
13765;BME280;6953;48.810;9.204;2022-07-23T07:26:06;98817.56;;;26.67;59.78
13765;BME280;6953;48.810;9.204;2022-07-23T07:28:32;98769.69;;;26.25;60.76
13765;BME280;6953;48.810;9.204;2022-07-23T07:30:57;98754.31;;;26.03;62.28
13765;BME280;6953;48.810;9.204;2022-07-23T07:33:22;98839.31;;;26.20;62.11
13765;BME280;6953;48.810;9.204;2022-07-23T07:35:48;98843.84;;;25.57;65.33
13765;BME280;6953;48.810;9.204;2022-07-23T07:38:13;98784.22;;;24.58;68.44
13765;BME280;6953;48.810;9.204;2022-07-23T07:40:39;98863.31;;;24.95;69.74
13765;BME280;6953;48.810;9.204;2022-07-23T07:43:04;98778.00;;;24.41;71.28
13765;BME280;6953;48.810;9.204;2022-07-23T07:45:30;98806.41;;;24.76;69.87
13765;BME280;6953;48.810;9.204;2022-07-23T07:47:55;98735.66;;;25.63;66.15
13765;BME280;6953;48.810;9.204;2022-07-23T07:50:21;98861.72;;;27.34;62.53
13765;BME280;6953;48.810;9.204;2022-07-23T07:52:47;98901.03;;;28.02;59.88
13765;BME280;6953;48.810;9.204;2022-07-23T07:55:13;98898.38;;;28.31;59.49
13765;BME280;6953;48.810;9.204;2022-07-23T07:57:39;98917.53;;;28.36;58.05
13765;BME280;6953;48.810;9.204;2022-07-23T08:00:06;98821.38;;;27.91;57.68
13765;BME280;6953;48.810;9.204;2022-07-23T08:02:48;98903.91;;;29.08;54.93
13765;BME280;6953;48.810;9.204;2022-07-23T08:05:17;98888.59;;;29.15;53.88
13765;BME280;6953;48.810;9.204;2022-07-23T08:07:43;98868.34;;;28.55;55.32
13765;BME280;6953;48.810;9.204;2022-07-23T08:10:09;98919.34;;;28.78;56.14
13765;BME280;6953;48.810;9.204;2022-07-23T08:12:48;98913.59;;;29.17;56.12
13765;BME280;6953;48.810;9.204;2022-07-23T08:15:16;98924.38;;;30.28;52.85
13765;BME280;6953;48.810;9.204;2022-07-23T08:17:43;98857.09;;;32.59;45.84
13765;BME280;6953;48.810;9.204;2022-07-23T08:20:10;98926.28;;;35.38;39.74
13765;BME280;6953;48.810;9.204;2022-07-23T08:23:03;98923.53;;;35.27;36.56
13765;BME280;6953;48.810;9.204;2022-07-23T08:25:31;98907.44;;;33.56;40.00
13765;BME280;6953;48.810;9.204;2022-07-23T08:27:58;98891.31;;;31.78;43.74
13765;BME280;6953;48.810;9.204;2022-07-23T08:30:25;98825.50;;;30.04;47.45
13765;BME280;6953;48.810;9.204;2022-07-23T08:35:27;98878.38;;;29.31;51.77
13765;BME280;6953;48.810;9.204;2022-07-23T08:37:53;98900.00;;;29.10;52.68
13765;BME280;6953;48.810;9.204;2022-07-23T08:40:18;98809.44;;;28.29;54.10
13765;BME280;6953;48.810;9.204;2022-07-23T08:42:49;98820.53;;;28.34;55.16
13765;BME280;6953;48.810;9.204;2022-07-23T08:45:17;98907.16;;;29.18;54.02
13765;BME280;6953;48.810;9.204;2022-07-23T08:47:44;98886.94;;;31.70;45.66
13765;BME280;6953;48.810;9.204;2022-07-23T08:50:10;98922.00;;;35.30;37.95
13765;BME280;6953;48.810;9.204;2022-07-23T08:52:36;98885.47;;;37.03;34.60
13765;BME280;6953;48.810;9.204;2022-07-23T08:55:01;98843.94;;;37.67;31.29
13765;BME280;6953;48.810;9.204;2022-07-23T08:57:27;98907.91;;;38.38;30.46
13765;BME280;6953;48.810;9.204;2022-07-23T08:59:52;98852.44;;;37.98;30.04
13765;BME280;6953;48.810;9.204;2022-07-23T09:02:18;98821.53;;;38.41;28.59
13765;BME280;6953;48.810;9.204;2022-07-23T09:04:43;98911.09;;;39.85;27.17
13765;BME280;6953;48.810;9.204;2022-07-23T09:07:08;98854.47;;;40.67;26.20
13765;BME280;6953;48.810;9.204;2022-07-23T09:09:34;98862.44;;;41.39;23.62
13765;BME280;6953;48.810;9.204;2022-07-23T09:12:09;98874.78;;;42.76;22.00
13765;BME280;6953;48.810;9.204;2022-07-23T09:14:39;98922.69;;;43.10;22.16
13765;BME280;6953;48.810;9.204;2022-07-23T09:17:09;98859.78;;;43.40;21.49
13765;BME280;6953;48.810;9.204;2022-07-23T09:19:35;98860.78;;;44.49;19.96
13765;BME280;6953;48.810;9.204;2022-07-23T09:22:16;98896.75;;;44.78;18.96
13765;BME280;6953;48.810;9.204;2022-07-23T09:25:05;98911.16;;;44.23;19.16
13765;BME280;6953;48.810;9.204;2022-07-23T09:30:18;98850.63;;;45.65;17.75
13765;BME280;6953;48.810;9.204;2022-07-23T09:32:43;98906.53;;;45.17;19.04
13765;BME280;6953;48.810;9.204;2022-07-23T09:35:09;98901.28;;;43.35;20.32
13765;BME280;6953;48.810;9.204;2022-07-23T09:37:34;98887.78;;;41.41;22.28
13765;BME280;6953;48.810;9.204;2022-07-23T09:40:05;98891.06;;;40.67;23.67
13765;BME280;6953;48.810;9.204;2022-07-23T09:42:31;98895.84;;;41.63;22.63
13765;BME280;6953;48.810;9.204;2022-07-23T09:44:58;98913.09;;;43.56;19.80
13765;BME280;6953;48.810;9.204;2022-07-23T09:47:27;98895.75;;;42.67;20.76
13765;BME280;6953;48.810;9.204;2022-07-23T09:52:29;98890.94;;;43.03;20.11
13765;BME280;6953;48.810;9.204;2022-07-23T09:54:59;98890.66;;;44.29;18.55
13765;BME280;6953;48.810;9.204;2022-07-23T09:57:26;98817.72;;;45.04;17.18
13765;BME280;6953;48.810;9.204;2022-07-23T09:59:52;98924.91;;;46.56;16.25
13765;BME280;6953;48.810;9.204;2022-07-23T10:02:18;98896.41;;;46.90;16.51
13765;BME280;6953;48.810;9.204;2022-07-23T10:04:44;98921.41;;;47.31;16.60
13765;BME280;6953;48.810;9.204;2022-07-23T10:07:11;98912.34;;;47.39;16.10
13765;BME280;6953;48.810;9.204;2022-07-23T10:09:39;98840.47;;;47.41;15.99
13765;BME280;6953;48.810;9.204;2022-07-23T10:12:09;98923.22;;;47.62;15.13
13765;BME280;6953;48.810;9.204;2022-07-23T10:14:41;98851.69;;;46.60;15.27
13765;BME280;6953;48.810;9.204;2022-07-23T10:17:07;98895.16;;;46.83;15.68
13765;BME280;6953;48.810;9.204;2022-07-23T10:19:32;98869.59;;;46.09;16.40
13765;BME280;6953;48.810;9.204;2022-07-23T10:22:19;98919.25;;;46.61;16.38
13765;BME280;6953;48.810;9.204;2022-07-23T10:28:06;98893.91;;;47.16;15.53
13765;BME280;6953;48.810;9.204;2022-07-23T10:33:32;98902.44;;;45.88;16.77
13765;BME280;6953;48.810;9.204;2022-07-23T10:39:04;98897.63;;;47.74;15.66
13765;BME280;6953;48.810;9.204;2022-07-23T10:41:40;98750.72;;;47.13;14.56
13765;BME280;6953;48.810;9.204;2022-07-23T10:44:06;98916.91;;;47.70;15.37
13765;BME280;6953;48.810;9.204;2022-07-23T10:46:32;98907.31;;;47.27;15.27
13765;BME280;6953;48.810;9.204;2022-07-23T10:49:30;98898.25;;;47.08;15.55
13765;BME280;6953;48.810;9.204;2022-07-23T10:52:20;98904.75;;;47.66;15.45
13765;BME280;6953;48.810;9.204;2022-07-23T10:54:50;98895.72;;;48.26;14.53
13765;BME280;6953;48.810;9.204;2022-07-23T10:57:18;98877.66;;;47.93;13.88
13765;BME280;6953;48.810;9.204;2022-07-23T11:02:39;98867.66;;;47.08;14.58
13765;BME280;6953;48.810;9.204;2022-07-23T11:05:07;98886.56;;;47.20;14.72
13765;BME280;6953;48.810;9.204;2022-07-23T11:07:34;98852.50;;;47.63;14.57
13765;BME280;6953;48.810;9.204;2022-07-23T11:10:00;98900.78;;;47.80;14.82
13765;BME280;6953;48.810;9.204;2022-07-23T11:15:11;98807.84;;;47.90;14.28
13765;BME280;6953;48.810;9.204;2022-07-23T11:25:08;98869.75;;;45.85;16.95
13765;BME280;6953;48.810;9.204;2022-07-23T11:27:41;98865.13;;;46.26;16.29
13765;BME280;6953;48.810;9.204;2022-07-23T11:30:08;98872.38;;;45.22;16.50
13765;BME280;6953;48.810;9.204;2022-07-23T11:32:40;98875.53;;;43.83;17.72
13765;BME280;6953;48.810;9.204;2022-07-23T11:35:27;98847.84;;;41.94;19.74
13765;BME280;6953;48.810;9.204;2022-07-23T11:38:03;98841.78;;;40.19;21.53
13765;BME280;6953;48.810;9.204;2022-07-23T11:40:29;98849.16;;;40.14;21.72
13765;BME280;6953;48.810;9.204;2022-07-23T11:42:57;98840.06;;;40.08;21.84
13765;BME280;6953;48.810;9.204;2022-07-23T11:45:29;98860.81;;;41.63;19.62
13765;BME280;6953;48.810;9.204;2022-07-23T11:47:55;98852.16;;;41.10;20.55
13765;BME280;6953;48.810;9.204;2022-07-23T11:50:23;98772.34;;;40.54;21.00
13765;BME280;6953;48.810;9.204;2022-07-23T11:52:48;98863.25;;;42.49;19.73
13765;BME280;6953;48.810;9.204;2022-07-23T11:55:14;98853.63;;;43.05;18.45
13765;BME280;6953;48.810;9.204;2022-07-23T11:57:41;98797.59;;;43.38;18.05
13765;BME280;6953;48.810;9.204;2022-07-23T12:00:12;98824.88;;;44.86;17.37
13765;BME280;6953;48.810;9.204;2022-07-23T12:02:40;98796.94;;;46.47;15.90
13765;BME280;6953;48.810;9.204;2022-07-23T12:05:06;98816.94;;;47.60;15.64
13765;BME280;6953;48.810;9.204;2022-07-23T12:07:36;98850.84;;;48.06;14.71
13765;BME280;6953;48.810;9.204;2022-07-23T12:10:11;98870.34;;;48.28;14.50
13765;BME280;6953;48.810;9.204;2022-07-23T12:12:58;98862.97;;;48.32;14.73
13765;BME280;6953;48.810;9.204;2022-07-23T12:15:36;98866.81;;;47.92;15.00
13765;BME280;6953;48.810;9.204;2022-07-23T12:18:04;98863.00;;;47.17;16.15
13765;BME280;6953;48.810;9.204;2022-07-23T12:20:41;98860.91;;;46.15;16.12
13765;BME280;6953;48.810;9.204;2022-07-23T12:23:08;98856.03;;;46.66;15.77
13765;BME280;6953;48.810;9.204;2022-07-23T12:25:36;98789.78;;;47.08;15.33
13765;BME280;6953;48.810;9.204;2022-07-23T12:28:12;98827.06;;;47.21;14.91
13765;BME280;6953;48.810;9.204;2022-07-23T12:33:04;98861.56;;;47.90;14.19
13765;BME280;6953;48.810;9.204;2022-07-23T12:35:39;98835.28;;;47.26;14.58
13765;BME280;6953;48.810;9.204;2022-07-23T12:38:09;98825.38;;;46.58;15.46
13765;BME280;6953;48.810;9.204;2022-07-23T12:40:41;98860.47;;;44.79;16.71
13765;BME280;6953;48.810;9.204;2022-07-23T12:45:46;98830.81;;;44.33;16.79
13765;BME280;6953;48.810;9.204;2022-07-23T12:48:16;98844.88;;;43.75;17.62
13765;BME280;6953;48.810;9.204;2022-07-23T12:53:17;98814.28;;;44.46;17.69
13765;BME280;6953;48.810;9.204;2022-07-23T12:55:44;98854.38;;;44.96;16.64
13765;BME280;6953;48.810;9.204;2022-07-23T12:58:19;98850.94;;;44.62;17.22
13765;BME280;6953;48.810;9.204;2022-07-23T13:05:58;98833.84;;;44.03;17.74
13765;BME280;6953;48.810;9.204;2022-07-23T13:08:24;98831.22;;;44.17;18.07
13765;BME280;6953;48.810;9.204;2022-07-23T13:10:50;98830.31;;;43.98;18.11
13765;BME280;6953;48.810;9.204;2022-07-23T13:13:22;98843.63;;;43.14;18.98
13765;BME280;6953;48.810;9.204;2022-07-23T13:15:48;98816.94;;;41.87;19.62
13765;BME280;6953;48.810;9.204;2022-07-23T13:18:13;98824.19;;;40.20;21.60
13765;BME280;6953;48.810;9.204;2022-07-23T13:20:39;98806.81;;;39.47;22.63
13765;BME280;6953;48.810;9.204;2022-07-23T13:23:06;98763.16;;;39.87;21.97
13765;BME280;6953;48.810;9.204;2022-07-23T13:25:32;98831.81;;;41.31;20.77
13765;BME280;6953;48.810;9.204;2022-07-23T13:27:57;98841.53;;;41.88;20.15
13765;BME280;6953;48.810;9.204;2022-07-23T13:30:23;98844.00;;;42.09;19.82
13765;BME280;6953;48.810;9.204;2022-07-23T13:32:48;98847.75;;;43.21;18.64
13765;BME280;6953;48.810;9.204;2022-07-23T13:35:14;98859.66;;;44.50;18.10
13765;BME280;6953;48.810;9.204;2022-07-23T13:37:40;98858.94;;;45.65;16.95
13765;BME280;6953;48.810;9.204;2022-07-23T13:40:06;98799.09;;;46.23;16.10
13765;BME280;6953;48.810;9.204;2022-07-23T13:42:31;98861.88;;;47.67;15.28
13765;BME280;6953;48.810;9.204;2022-07-23T13:44:57;98842.78;;;48.26;14.87
13765;BME280;6953;48.810;9.204;2022-07-23T13:47:22;98849.81;;;48.54;14.74
13765;BME280;6953;48.810;9.204;2022-07-23T13:49:47;98848.56;;;47.64;15.04
13765;BME280;6953;48.810;9.204;2022-07-23T13:52:13;98854.75;;;47.26;15.47